createdAt,value
2019-01-29T16:53:06.228Z,990.70
2019-01-29T16:54:06.279Z,990.63
2019-01-29T16:55:06.253Z,990.62
2019-01-29T16:56:06.301Z,990.64
2019-01-29T16:57:06.267Z,990.61
2019-01-29T16:58:06.285Z,990.57
2019-01-29T16:59:06.295Z,990.55
2019-01-29T17:00:06.371Z,990.54
2019-01-29T17:01:06.310Z,990.47
2019-01-29T17:02:06.326Z,990.46
2019-01-29T17:03:06.340Z,990.49
2019-01-29T17:04:06.350Z,990.46
2019-01-29T17:05:06.367Z,990.48
2019-01-29T17:06:06.386Z,990.43
2019-01-29T17:07:06.390Z,990.42
2019-01-29T17:08:06.412Z,990.38
2019-01-29T17:09:06.419Z,990.38
2019-01-29T17:10:06.443Z,990.35
2019-01-29T17:11:06.444Z,990.33
2019-01-29T17:12:06.457Z,990.32
2019-01-29T17:13:06.467Z,990.30
2019-01-29T17:14:06.488Z,990.25
2019-01-29T17:15:06.503Z,990.26
2019-01-29T17:16:06.502Z,990.22
2019-01-29T17:17:06.539Z,990.22
2019-01-29T17:18:06.550Z,990.23
2019-01-29T17:19:06.541Z,990.24
2019-01-29T17:20:06.574Z,990.25
2019-01-29T17:21:06.619Z,990.22
2019-01-29T17:22:06.583Z,990.21
2019-01-29T17:23:06.594Z,990.19
2019-01-29T17:24:06.649Z,990.18
2019-01-29T17:25:06.625Z,990.15
2019-01-29T17:26:06.636Z,990.23
2019-01-29T17:27:06.655Z,990.19
2019-01-29T17:28:06.665Z,990.19
2019-01-29T17:29:06.666Z,990.15
2019-01-29T17:31:06.694Z,990.13
2019-01-29T17:32:06.717Z,990.15
2019-01-29T17:33:06.727Z,990.08
2019-01-29T17:34:06.742Z,990.13
2019-01-29T17:35:06.756Z,990.12
2019-01-29T17:36:06.779Z,990.10
2019-01-29T17:37:06.775Z,990.11
2019-01-29T17:38:06.791Z,990.09
2019-01-29T17:39:06.800Z,990.10
2019-01-29T17:40:06.815Z,990.08
2019-01-29T17:41:06.959Z,990.08
2019-01-29T17:43:06.844Z,990.01
2019-01-29T17:44:06.924Z,990.01
2019-01-29T17:45:06.916Z,990.03
2019-01-29T17:46:06.890Z,989.97
2019-01-29T17:47:06.893Z,989.94
2019-01-29T17:48:06.910Z,989.86
2019-01-29T17:49:06.953Z,989.88
2019-01-29T17:50:07.020Z,989.88
2019-01-29T17:51:06.998Z,989.85
2019-01-29T17:52:06.964Z,989.84
2019-01-29T17:53:06.969Z,989.84
2019-01-29T17:54:06.986Z,989.84
2019-01-29T17:55:07.222Z,989.81
2019-01-29T17:56:07.010Z,989.80
2019-01-29T17:58:07.786Z,989.75
2019-01-29T17:59:07.053Z,989.76
2019-01-29T18:00:07.087Z,989.75
2019-01-29T18:01:07.085Z,989.74
2019-01-29T18:02:07.279Z,989.73
2019-01-29T18:04:07.107Z,989.69
2019-01-29T18:05:07.119Z,989.73
2019-01-29T18:06:07.142Z,989.77
2019-01-29T18:07:07.170Z,989.73
2019-01-29T18:09:07.256Z,989.72
2019-01-29T18:10:07.235Z,989.71
2019-01-29T18:11:07.195Z,989.66
2019-01-29T18:12:07.258Z,989.68
2019-01-29T18:13:07.459Z,989.63
2019-01-29T18:14:07.240Z,989.62
2019-01-29T18:15:07.265Z,989.60
2019-01-29T18:16:07.336Z,989.59
2019-01-29T18:17:07.282Z,989.56
2019-01-29T18:18:07.285Z,989.52
2019-01-29T18:19:07.314Z,989.54
2019-01-29T18:20:07.441Z,989.51
2019-01-29T18:21:07.681Z,989.54
2019-01-29T18:22:07.344Z,989.49
2019-01-29T18:23:07.355Z,989.46
2019-01-29T18:24:07.364Z,989.46
2019-01-29T18:25:07.383Z,989.44
2019-01-29T18:28:08.624Z,989.38
2019-01-29T18:29:07.461Z,989.34
2019-01-29T18:30:07.462Z,989.34
2019-01-29T18:31:07.452Z,989.31
2019-01-29T18:32:07.483Z,989.28
2019-01-29T18:34:07.519Z,989.24
2019-01-29T18:35:28.522Z,989.24
2019-01-29T18:36:07.531Z,989.25
2019-01-29T18:37:07.570Z,989.19
2019-01-29T18:38:07.560Z,989.20
2019-01-29T18:39:07.565Z,989.15
2019-01-29T18:40:07.590Z,989.11
2019-01-29T18:41:07.595Z,989.10
2019-01-29T18:42:07.594Z,989.07
2019-01-29T18:43:07.623Z,989.01
2019-01-29T18:44:07.623Z,989.04
2019-01-29T18:45:07.626Z,988.99
2019-01-29T18:46:07.637Z,988.99
2019-01-29T18:47:07.698Z,989.02
2019-01-29T18:48:07.690Z,989.00
2019-01-29T18:49:07.681Z,988.98
2019-01-29T18:50:07.703Z,989.01
2019-01-29T18:51:07.715Z,988.98
2019-01-29T18:52:07.754Z,988.95
2019-01-29T18:53:07.737Z,988.91
2019-01-29T18:55:07.752Z,988.84
2019-01-29T18:56:07.782Z,988.86
2019-01-29T18:57:07.884Z,988.86
2019-01-29T18:58:12.012Z,988.84
2019-01-29T18:59:07.825Z,988.82
2019-01-29T19:00:07.831Z,988.81
2019-01-29T19:01:07.834Z,988.85
2019-01-29T19:02:07.839Z,988.77
2019-01-29T19:03:07.900Z,988.76
2019-01-29T19:05:07.873Z,988.77
2019-01-29T19:06:07.928Z,988.71
2019-01-29T19:07:07.941Z,988.68
2019-01-29T19:08:07.928Z,988.68
2019-01-29T19:09:07.934Z,988.64
2019-01-29T19:10:07.970Z,988.66
2019-01-29T19:11:07.992Z,988.64
2019-01-29T19:12:07.996Z,988.60
2019-01-29T19:13:08.005Z,988.61
2019-01-29T19:14:08.014Z,988.61
2019-01-29T19:15:08.016Z,988.55
2019-01-29T19:16:08.018Z,988.55
2019-01-29T19:17:08.041Z,988.57
2019-01-29T19:18:08.045Z,988.48
2019-01-29T19:19:08.049Z,988.49
2019-01-29T19:20:08.064Z,988.51
2019-01-29T19:21:08.072Z,988.48
2019-01-29T19:22:08.094Z,988.47
2019-01-29T19:23:08.099Z,988.47
2019-01-29T19:24:08.118Z,988.44
2019-01-29T19:25:08.125Z,988.46
2019-01-29T19:26:08.141Z,988.48
2019-01-29T19:27:08.150Z,988.44
2019-01-29T19:28:08.184Z,988.44
2019-01-29T19:29:08.216Z,988.43
2019-01-29T19:30:08.210Z,988.42
2019-01-29T19:31:08.223Z,988.42
2019-01-29T19:32:08.255Z,988.43
2019-01-29T19:33:08.246Z,988.38
2019-01-29T19:34:08.278Z,988.40
2019-01-29T19:35:08.266Z,988.33
2019-01-29T19:36:08.330Z,988.36
2019-01-29T19:37:08.401Z,988.38
2019-01-29T19:38:08.690Z,988.36
2019-01-29T19:39:08.305Z,988.38
2019-01-29T19:40:08.308Z,988.38
2019-01-29T19:41:08.798Z,988.32
2019-01-29T19:42:08.348Z,988.37
2019-01-29T19:43:08.372Z,988.32
2019-01-29T19:44:08.893Z,988.33
2019-01-29T19:45:08.723Z,988.33
2019-01-29T19:46:08.422Z,988.26
2019-01-29T19:47:08.392Z,988.24
2019-01-29T19:48:08.638Z,988.21
2019-01-29T19:49:08.509Z,988.21
2019-01-29T19:50:08.444Z,988.24
2019-01-29T19:51:08.694Z,988.21
2019-01-29T19:52:08.501Z,988.14
2019-01-29T19:53:08.469Z,988.15
2019-01-29T19:54:08.506Z,988.12
2019-01-29T19:55:08.542Z,988.13
2019-01-29T19:56:08.551Z,988.10
2019-01-29T19:57:08.770Z,988.11
2019-01-29T19:58:09.520Z,988.09
2019-01-29T19:59:08.550Z,988.09
2019-01-29T20:00:08.658Z,988.04
2019-01-29T20:01:08.561Z,987.97
2019-01-29T20:02:08.590Z,987.97
2019-01-29T20:03:08.791Z,987.99
2019-01-29T20:04:08.771Z,987.95
2019-01-29T20:05:08.608Z,987.89
2019-01-29T20:07:08.647Z,987.90
2019-01-29T20:08:08.648Z,987.93
2019-01-29T20:09:08.675Z,987.87
2019-01-29T20:10:08.716Z,987.83
2019-01-29T20:11:08.703Z,987.81
2019-01-29T20:13:08.731Z,987.79
2019-01-29T20:14:08.724Z,987.71
2019-01-29T20:15:08.760Z,987.71
2019-01-29T20:16:08.810Z,987.70
2019-01-29T20:17:08.896Z,987.70
2019-01-29T20:18:08.788Z,987.72
2019-01-29T20:19:08.803Z,987.72
2019-01-29T20:20:08.803Z,987.77
2019-01-29T20:21:08.809Z,987.72
2019-01-29T20:22:08.834Z,987.73
2019-01-29T20:23:08.837Z,987.72
2019-01-29T20:24:08.856Z,987.79
2019-01-29T20:25:08.873Z,987.78
2019-01-29T20:26:08.954Z,987.82
2019-01-29T20:27:08.927Z,987.78
2019-01-29T20:28:08.884Z,987.82
2019-01-29T20:29:08.932Z,987.77
2019-01-29T20:30:08.937Z,987.80
2019-01-29T20:31:08.955Z,987.78
2019-01-29T20:32:08.951Z,987.76
2019-01-29T20:33:08.977Z,987.76
2019-01-29T20:34:09.004Z,987.74
2019-01-29T20:35:08.991Z,987.75
2019-01-29T20:36:08.987Z,987.72
2019-01-29T20:37:08.994Z,987.73
2019-01-29T20:38:09.365Z,987.70
2019-01-29T20:39:09.085Z,987.68
2019-01-29T20:40:09.039Z,987.64
2019-01-29T20:41:09.043Z,987.61
2019-01-29T20:42:09.081Z,987.60
2019-01-29T20:43:09.199Z,987.60
2019-01-29T20:44:09.118Z,987.58
2019-01-29T20:45:09.101Z,987.52
2019-01-29T20:46:09.115Z,987.55
2019-01-29T20:47:09.127Z,987.49
2019-01-29T20:48:09.208Z,987.45
2019-01-29T20:49:09.152Z,987.46
2019-01-29T20:50:09.193Z,987.47
2019-01-29T20:52:09.202Z,987.41
2019-01-29T20:53:09.195Z,987.40
2019-01-29T20:54:09.245Z,987.43
2019-01-29T20:55:11.635Z,987.41
2019-01-29T20:56:09.281Z,987.39
2019-01-29T20:57:09.260Z,987.40
2019-01-29T20:58:09.391Z,987.35
2019-01-29T20:59:09.321Z,987.36
2019-01-29T21:00:09.345Z,987.37
2019-01-29T21:01:09.313Z,987.33
2019-01-29T21:03:09.321Z,987.31
2019-01-29T21:04:09.356Z,987.29
2019-01-29T21:05:09.369Z,987.22
2019-01-29T21:06:09.423Z,987.24
2019-01-29T21:07:09.355Z,987.21
2019-01-29T21:08:09.538Z,987.20
2019-01-29T21:09:09.715Z,987.19
2019-01-29T21:10:09.397Z,987.16
2019-01-29T21:11:09.481Z,987.15
2019-01-29T21:12:09.435Z,987.11
2019-01-29T21:14:09.470Z,987.06
2019-01-29T21:15:09.486Z,987.02
2019-01-29T21:16:09.479Z,987.01
2019-01-29T21:17:09.510Z,986.99
2019-01-29T21:18:09.516Z,986.99
2019-01-29T21:19:09.505Z,986.95
2019-01-29T21:20:09.525Z,986.97
2019-01-29T21:21:09.602Z,986.97
2019-01-29T21:22:09.545Z,986.93
2019-01-29T21:23:09.555Z,986.95
2019-01-29T21:24:09.586Z,986.95
2019-01-29T21:25:09.572Z,986.92
2019-01-29T21:26:09.600Z,986.88
2019-01-29T21:27:09.598Z,986.85
2019-01-29T21:28:09.632Z,986.85
2019-01-29T21:29:09.629Z,986.80
2019-01-29T21:30:09.633Z,986.78
2019-01-29T21:31:09.689Z,986.76
2019-01-29T21:32:09.701Z,986.79
2019-01-29T21:33:09.675Z,986.69
2019-01-29T21:35:09.730Z,986.68
2019-01-29T21:36:09.772Z,986.66
2019-01-29T21:37:09.730Z,986.61
2019-01-29T21:38:09.776Z,986.60
2019-01-29T21:39:09.750Z,986.64
2019-01-29T21:42:09.782Z,986.60
2019-01-29T21:43:09.819Z,986.55
2019-01-29T21:45:09.826Z,986.49
2019-01-29T21:46:09.910Z,986.48
2019-01-29T21:47:09.843Z,986.50
2019-01-29T21:48:09.858Z,986.44
2019-01-29T21:49:09.948Z,986.41
2019-01-29T21:50:11.674Z,986.41
2019-01-29T21:51:09.890Z,986.36
2019-01-29T21:52:09.893Z,986.35
2019-01-29T21:53:09.997Z,986.33
2019-01-29T21:54:09.907Z,986.28
2019-01-29T21:55:09.935Z,986.27
2019-01-29T21:56:10.012Z,986.25
2019-01-29T21:57:10.016Z,986.23
2019-01-29T21:58:09.998Z,986.23
2019-01-29T21:59:13.407Z,986.21
2019-01-29T22:00:09.997Z,986.17
2019-01-29T22:01:10.026Z,986.17
2019-01-29T22:02:10.030Z,986.17
2019-01-29T22:03:10.064Z,986.11
2019-01-29T22:04:10.067Z,986.14
2019-01-29T22:05:10.047Z,986.11
2019-01-29T22:06:10.073Z,986.04
2019-01-29T22:07:10.088Z,986.08
2019-01-29T22:08:10.093Z,986.06
2019-01-29T22:09:10.110Z,986.10
2019-01-29T22:10:10.125Z,986.05
2019-01-29T22:11:10.142Z,985.98
2019-01-29T22:13:10.148Z,985.96
2019-01-29T22:14:10.160Z,986.00
2019-01-29T22:15:10.188Z,985.92
2019-01-29T22:16:10.290Z,985.89
2019-01-29T22:17:10.238Z,985.86
2019-01-29T22:18:10.204Z,985.86
2019-01-29T22:19:10.206Z,985.82
2019-01-29T22:20:10.238Z,985.83
2019-01-29T22:21:10.246Z,985.80
2019-01-29T22:22:10.266Z,985.77
2019-01-29T22:23:10.267Z,985.78
2019-01-29T22:24:10.306Z,985.76
2019-01-29T22:25:10.442Z,985.74
2019-01-29T22:26:10.399Z,985.72
2019-01-29T22:27:10.310Z,985.74
2019-01-29T22:28:10.329Z,985.75
2019-01-29T22:29:10.371Z,985.66
2019-01-29T22:30:10.342Z,985.67
2019-01-29T22:31:10.366Z,985.64
2019-01-29T22:32:10.367Z,985.62
2019-01-29T22:33:10.476Z,985.57
2019-01-29T22:34:10.415Z,985.54
2019-01-29T22:35:10.488Z,985.56
2019-01-29T22:36:10.498Z,985.56
2019-01-29T22:37:10.425Z,985.53
2019-01-29T22:38:10.558Z,985.52
2019-01-29T22:39:10.462Z,985.50
2019-01-29T22:40:10.469Z,985.44
2019-01-29T22:41:10.489Z,985.37
2019-01-29T22:42:10.489Z,985.40
2019-01-29T22:44:10.528Z,985.35
2019-01-29T22:45:10.581Z,985.34
2019-01-29T22:46:10.646Z,985.28
2019-01-29T22:47:10.566Z,985.31
2019-01-29T22:48:10.688Z,985.28
2019-01-29T22:49:10.574Z,985.27
2019-01-29T22:50:10.572Z,985.24
2019-01-29T22:51:10.591Z,985.22
2019-01-29T22:53:10.655Z,985.16
2019-01-29T22:54:10.704Z,985.15
2019-01-29T22:55:10.753Z,985.15
2019-01-29T22:56:10.718Z,985.13
2019-01-29T22:57:10.750Z,985.13
2019-01-29T22:58:10.781Z,985.14
2019-01-29T22:59:10.728Z,985.10
2019-01-29T23:00:10.714Z,985.07
2019-01-29T23:01:10.755Z,985.05
2019-01-29T23:02:10.718Z,985.02
2019-01-29T23:03:10.759Z,985.02
2019-01-29T23:04:10.769Z,984.99
2019-01-29T23:05:10.780Z,984.97
2019-01-29T23:07:10.908Z,984.98
2019-01-29T23:08:10.942Z,984.95
2019-01-29T23:09:10.919Z,984.91
2019-01-29T23:10:10.879Z,984.89
2019-01-29T23:11:10.940Z,984.92
2019-01-29T23:12:10.888Z,984.91
2019-01-29T23:13:31.927Z,984.87
2019-01-29T23:14:10.867Z,984.90
2019-01-29T23:15:10.943Z,984.88
2019-01-29T23:16:10.884Z,984.87
2019-01-29T23:17:10.901Z,984.83
2019-01-29T23:18:10.962Z,984.83
2019-01-29T23:19:10.926Z,984.78
2019-01-29T23:20:10.949Z,984.75
2019-01-29T23:21:10.975Z,984.76
2019-01-29T23:22:10.953Z,984.73
2019-01-29T23:24:10.996Z,984.72
2019-01-29T23:25:11.122Z,984.67
2019-01-29T23:26:11.022Z,984.62
2019-01-29T23:27:11.064Z,984.59
2019-01-29T23:28:11.030Z,984.54
2019-01-29T23:29:11.046Z,984.52
2019-01-29T23:30:11.042Z,984.54
2019-01-29T23:31:11.074Z,984.49
2019-01-29T23:32:11.122Z,984.52
2019-01-29T23:33:11.090Z,984.47
2019-01-29T23:34:11.118Z,984.44
2019-01-29T23:35:11.113Z,984.45
2019-01-29T23:36:11.226Z,984.43
2019-01-29T23:37:11.125Z,984.43
2019-01-29T23:39:11.219Z,984.35
2019-01-29T23:40:11.194Z,984.35
2019-01-29T23:41:11.183Z,984.32
2019-01-29T23:42:11.243Z,984.33
2019-01-29T23:43:11.198Z,984.30
2019-01-29T23:44:11.245Z,984.27
2019-01-29T23:45:11.236Z,984.22
2019-01-29T23:46:11.300Z,984.22
2019-01-29T23:47:11.306Z,984.18
2019-01-29T23:48:11.269Z,984.19
2019-01-29T23:49:11.315Z,984.22
2019-01-29T23:51:11.325Z,984.14
2019-01-29T23:52:11.404Z,984.11
2019-01-29T23:53:11.442Z,984.11
2019-01-29T23:54:11.323Z,984.16
2019-01-29T23:55:11.346Z,984.11
2019-01-29T23:56:11.431Z,984.10
2019-01-29T23:58:11.486Z,984.10
2019-01-29T23:59:11.452Z,984.12
